KLVM

Mission Field Airport

Livingston, Montana, USA
METAR KLVM 151853Z AUTO 22039G53KT 10SM CLR 05/M05 A2986 RMK AO2 PK WND 22055/1756 SLP121 T00501050
Observed Flight Rules
Dec-15 @ 18:53 UTC (56 minutes ago) Visual Flight Rules
Wind Visibility Clouds
220° at 39 knots
 Gusting to 53 knots
10 miles
  • Clear skies
Temperatures Readings
Current 5°C / 41°F
Dewpoint -5°C / 23°F
Humidity 49%
Altimeter 29.86" Hg
Pressure 1012.1 hPa
Elevation 1418
METAR KLVM 151853Z AUTO 22039G53KT 10SM CLR 05/M05 A2986 RMK AO2 PK WND 22055/1756 SLP121 T00501050
Observed Flight Rules
Dec-15 @ 18:53 UTC
(56 minutes ago)
VFR
Wind Visibility
220° at 39 knots
 Gusting to 53 knots
10 miles
Clouds
  • Clear skies
Temperature Dewpoint
5°C / 41°F -5°C / 23°F
Humidity Altimeter Pressure
49% 29.86" Hg 1012.1 hPa